(°C)
23°
21°
19°
18°
17°
16°
15°
(°C)
21°
20°
18°
17°
16°
15°
14°
NO
NNO
NNO
N
N
N
N
(km/h)
10-22
8-17
8-15
7-14
7-13
7-12
7-11
(mm)
0
0
0
0
0
0
0
(%)
6
1
0
0
0
0
0

Élévation du soleil

/ 6.1°
sun-icon
UV 4
04:31
20:27
Pleine lune (187°)
21:14
04:11

METAR pour 51.82°N 39.23°E (UUOO)

Heure Conditions Température/
Point de rosée
Vent Visibilité Météo Nuages Pression Changement Brut
VFR 23°C / 9°C 20º 6kt >10km - Clouds and Visibility OK 1014 No Significant change. Runway 30: Clear and dry, 1-10% contamination with <1mm, friction coefficient 0.70. UUOO 241600Z 02003MPS CAVOK 23/09 Q1014 R30/010070 NOSIG RMK QFE747
VFR 24°C / 8°C 20º 6kt >10km - Clouds and Visibility OK 1014 No Significant change. Runway 30: Clear and dry, 1-10% contamination with <1mm, friction coefficient 0.70. UUOO 241530Z 02003MPS CAVOK 24/08 Q1014 R30/010070 NOSIG RMK QFE747
VFR 25°C / 8°C 360º variable 330º to 040º 6kt >10km - Clouds and Visibility OK 1013 No Significant change. Runway 30: Clear and dry, 1-10% contamination with <1mm, friction coefficient 0.70. UUOO 241500Z 36003MPS 330V040 CAVOK 25/08 Q1013 R30/010070 NOSIG RMK QFE746
VFR 25°C / 9°C 10º 10kt >10km - Clouds and Visibility OK 1013 No Significant change. Runway 30: Clear and dry, 1-10% contamination with <1mm, friction coefficient 0.70. UUOO 241430Z 01005MPS CAVOK 25/09 Q1013 R30/010070 NOSIG RMK QFE746
VFR 24°C / 9°C 360º 10kt >10km - Clouds and Visibility OK 1013 No Significant change. Runway 30: Clear and dry, 1-10% contamination with <1mm, friction coefficient 0.70. UUOO 241400Z 36005MPS CAVOK 24/09 Q1013 R30/010070 NOSIG RMK QFE746
VFR 25°C / 9°C 340º 8kt >10km - Clouds and Visibility OK 1012 No Significant change. Runway 30: Clear and dry, 1-10% contamination with <1mm, friction coefficient 0.70. UUOO 241330Z 34004MPS CAVOK 25/09 Q1012 R30/010070 NOSIG RMK QFE746
VFR 26°C / 7°C 320º 8kt >10km - Clouds and Visibility OK 1012 No Significant change. Runway 30: Clear and dry, 1-10% contamination with <1mm, friction coefficient 0.70. UUOO 241300Z 32004MPS CAVOK 26/07 Q1012 R30/010070 NOSIG RMK QFE745
26°C / 8°C 280º 8kt >10km - 1012 No Significant change. Runway 30: Clear and dry, 1-10% contamination with <1mm, friction coefficient 0.70. UUOO 241230Z 28004MPS 9999 SCT///CB 26/08 Q1012 R30/010070 NOSIG RMK QFE745
26°C / 8°C 300º variable 260º to 330º 10kt >10km - 1012 No Significant change. Runway 30: Clear and dry, 1-10% contamination with <1mm, friction coefficient 0.70. UUOO 241200Z 30005MPS 260V330 9999 SCT///CB 26/08 Q1012 R30/010070 NOSIG RMK QFE745
24°C / 9°C 320º 12kt >10km - 1012 No Significant change. Runway 30: Clear and dry, 1-10% contamination with <1mm, friction coefficient 0.70. UUOO 241130Z 32006MPS 9999 SCT///CB 24/09 Q1012 R30/010070 NOSIG RMK QFE745
25°C / 9°C 290º 10kt >10km - 1012 No Significant change. Runway 30: Clear and dry, 1-10% contamination with <1mm, friction coefficient 0.70. UUOO 241100Z 29005MPS 9999 SCT///CB 25/09 Q1012 R30/010070 NOSIG RMK QFE745
24°C / 9°C 330º 10kt >10km - 1012 No Significant change. Runway 30: Clear and dry, 1-10% contamination with <1mm, friction coefficient 0.70. UUOO 241030Z 33005MPS 9999 SCT///CB 24/09 Q1012 R30/010070 NOSIG RMK QFE745
VFR 24°C / 10°C 300º 12kt >10km - Scattered Clouds 6700ft 1012 No Significant change. Runway 30: Clear and dry, 1-10% contamination with <1mm, friction coefficient 0.70. UUOO 241000Z 30006MPS 9999 SCT067CB 24/10 Q1012 R30/010070 NOSIG RMK QFE745
VFR 24°C / 10°C 280º 10kt >10km - Scattered Clouds 7400ft 1012 No Significant change. Runway 30: Clear and dry, 1-10% contamination with <1mm, friction coefficient 0.70. UUOO 240930Z 28005MPS 9999 SCT074CB 24/10 Q1012 R30/010070 NOSIG RMK QFE745
VFR 24°C / 10°C 290º variable 260º to 350º 8kt >10km - Scattered Clouds 6800ft 1012 No Significant change. Runway 30: Clear and dry, 1-10% contamination with <1mm, friction coefficient 0.70. UUOO 240900Z 29004MPS 260V350 9999 SCT068CB 24/10 Q1012 R30/010070 NOSIG RMK QFE745
VFR 23°C / 11°C 280º 8kt >10km - Clouds and Visibility OK 1012 No Significant change. Runway 30: Clear and dry, 1-10% contamination with <1mm, friction coefficient 0.70. UUOO 240830Z 28004MPS CAVOK 23/11 Q1012 R30/010070 NOSIG RMK QFE745
VFR 23°C / 12°C 280º variable 230º to 310º 6kt >10km - Clouds and Visibility OK 1012 No Significant change. Runway 30: Clear and dry, 1-10% contamination with <1mm, friction coefficient 0.70. UUOO 240800Z 28003MPS 230V310 CAVOK 23/12 Q1012 R30/010070 NOSIG RMK QFE745
VFR 24°C / 12°C 250º variable 160º to 290º 6kt >10km - Broken Clouds 4800ft 1012 No Significant change. Runway 30: Clear and dry, 1-10% contamination with <1mm, friction coefficient 0.70. UUOO 240730Z 25003MPS 160V290 9999 BKN048 24/12 Q1012 R30/010070 NOSIG RMK QFE745
VFR 23°C / 12°C 320º variable 260º to 030º 6kt >10km - Broken Clouds 3800ft 1011 No Significant change. Runway 30: Clear and dry, 1-10% contamination with <1mm, friction coefficient 0.70. UUOO 240700Z 32003MPS 260V030 9999 BKN038 23/12 Q1011 R30/010070 NOSIG RMK QFE745
VFR 22°C / 12°C variable 2kt >10km - Clouds and Visibility OK 1012 No Significant change. Runway 30: Clear and dry, 1-10% contamination with <1mm, friction coefficient 0.70. UUOO 240630Z VRB01MPS CAVOK 22/12 Q1012 R30/010070 NOSIG RMK QFE745
VFR 22°C / 12°C 300º variable 230º to 360º 4kt >10km - Clouds and Visibility OK 1011 No Significant change. Runway 30: Clear and dry, 1-10% contamination with <1mm, friction coefficient 0.70. UUOO 240600Z 30002MPS 230V360 CAVOK 22/12 Q1011 R30/010070 NOSIG RMK QFE745
VFR 21°C / 12°C 300º variable 260º to 360º 4kt >10km - Clouds and Visibility OK 1011 No Significant change. Runway 30: Clear and dry, 1-10% contamination with <1mm, friction coefficient 0.70. UUOO 240530Z 30002MPS 260V360 CAVOK 21/12 Q1011 R30/010070 NOSIG RMK QFE745
VFR 20°C / 13°C 300º 4kt >10km - Clouds and Visibility OK 1011 No Significant change. Runway 30: Clear and dry, 1-10% contamination with <1mm, friction coefficient 0.70. UUOO 240500Z 30002MPS CAVOK 20/13 Q1011 R30/010070 NOSIG RMK QFE745
VFR 19°C / 13°C 320º variable 270º to 340º 4kt >10km - Clouds and Visibility OK 1011 No Significant change. Runway 30: Clear and dry, 1-10% contamination with <1mm, friction coefficient 0.70. UUOO 240430Z 32002MPS 270V340 CAVOK 19/13 Q1011 R30/010070 NOSIG RMK QFE745

VFR

23°C / 9°C

[Plus]
Vent 20º 6kt
Visibilité >10km
Météo -
Nuages Clouds and Visibility OK
Pression 1014
Changement No Significant change. Runway 30: Clear and dry, 1-10% contamination with <1mm, friction coefficient 0.70.
Brut UUOO 241600Z 02003MPS CAVOK 23/09 Q1014 R30/010070 NOSIG RMK QFE747

VFR

24°C / 8°C

[Plus]
Vent 20º 6kt
Visibilité >10km
Météo -
Nuages Clouds and Visibility OK
Pression 1014
Changement No Significant change. Runway 30: Clear and dry, 1-10% contamination with <1mm, friction coefficient 0.70.
Brut UUOO 241530Z 02003MPS CAVOK 24/08 Q1014 R30/010070 NOSIG RMK QFE747

VFR

25°C / 8°C

[Plus]
Vent 360º variable 330º to 040º 6kt
Visibilité >10km
Météo -
Nuages Clouds and Visibility OK
Pression 1013
Changement No Significant change. Runway 30: Clear and dry, 1-10% contamination with <1mm, friction coefficient 0.70.
Brut UUOO 241500Z 36003MPS 330V040 CAVOK 25/08 Q1013 R30/010070 NOSIG RMK QFE746

VFR

25°C / 9°C

[Plus]
Vent 10º 10kt
Visibilité >10km
Météo -
Nuages Clouds and Visibility OK
Pression 1013
Changement No Significant change. Runway 30: Clear and dry, 1-10% contamination with <1mm, friction coefficient 0.70.
Brut UUOO 241430Z 01005MPS CAVOK 25/09 Q1013 R30/010070 NOSIG RMK QFE746

VFR

24°C / 9°C

[Plus]
Vent 360º 10kt
Visibilité >10km
Météo -
Nuages Clouds and Visibility OK
Pression 1013
Changement No Significant change. Runway 30: Clear and dry, 1-10% contamination with <1mm, friction coefficient 0.70.
Brut UUOO 241400Z 36005MPS CAVOK 24/09 Q1013 R30/010070 NOSIG RMK QFE746

VFR

25°C / 9°C

[Plus]
Vent 340º 8kt
Visibilité >10km
Météo -
Nuages Clouds and Visibility OK
Pression 1012
Changement No Significant change. Runway 30: Clear and dry, 1-10% contamination with <1mm, friction coefficient 0.70.
Brut UUOO 241330Z 34004MPS CAVOK 25/09 Q1012 R30/010070 NOSIG RMK QFE746

VFR

26°C / 7°C

[Plus]
Vent 320º 8kt
Visibilité >10km
Météo -
Nuages Clouds and Visibility OK
Pression 1012
Changement No Significant change. Runway 30: Clear and dry, 1-10% contamination with <1mm, friction coefficient 0.70.
Brut UUOO 241300Z 32004MPS CAVOK 26/07 Q1012 R30/010070 NOSIG RMK QFE745

26°C / 8°C

[Plus]
Vent 280º 8kt
Visibilité >10km
Météo -
Nuages
Pression 1012
Changement No Significant change. Runway 30: Clear and dry, 1-10% contamination with <1mm, friction coefficient 0.70.
Brut UUOO 241230Z 28004MPS 9999 SCT///CB 26/08 Q1012 R30/010070 NOSIG RMK QFE745

26°C / 8°C

[Plus]
Vent 300º variable 260º to 330º 10kt
Visibilité >10km
Météo -
Nuages
Pression 1012
Changement No Significant change. Runway 30: Clear and dry, 1-10% contamination with <1mm, friction coefficient 0.70.
Brut UUOO 241200Z 30005MPS 260V330 9999 SCT///CB 26/08 Q1012 R30/010070 NOSIG RMK QFE745

24°C / 9°C

[Plus]
Vent 320º 12kt
Visibilité >10km
Météo -
Nuages
Pression 1012
Changement No Significant change. Runway 30: Clear and dry, 1-10% contamination with <1mm, friction coefficient 0.70.
Brut UUOO 241130Z 32006MPS 9999 SCT///CB 24/09 Q1012 R30/010070 NOSIG RMK QFE745

25°C / 9°C

[Plus]
Vent 290º 10kt
Visibilité >10km
Météo -
Nuages
Pression 1012
Changement No Significant change. Runway 30: Clear and dry, 1-10% contamination with <1mm, friction coefficient 0.70.
Brut UUOO 241100Z 29005MPS 9999 SCT///CB 25/09 Q1012 R30/010070 NOSIG RMK QFE745

24°C / 9°C

[Plus]
Vent 330º 10kt
Visibilité >10km
Météo -
Nuages
Pression 1012
Changement No Significant change. Runway 30: Clear and dry, 1-10% contamination with <1mm, friction coefficient 0.70.
Brut UUOO 241030Z 33005MPS 9999 SCT///CB 24/09 Q1012 R30/010070 NOSIG RMK QFE745

VFR

24°C / 10°C

[Plus]
Vent 300º 12kt
Visibilité >10km
Météo -
Nuages Scattered Clouds 6700ft
Pression 1012
Changement No Significant change. Runway 30: Clear and dry, 1-10% contamination with <1mm, friction coefficient 0.70.
Brut UUOO 241000Z 30006MPS 9999 SCT067CB 24/10 Q1012 R30/010070 NOSIG RMK QFE745

VFR

24°C / 10°C

[Plus]
Vent 280º 10kt
Visibilité >10km
Météo -
Nuages Scattered Clouds 7400ft
Pression 1012
Changement No Significant change. Runway 30: Clear and dry, 1-10% contamination with <1mm, friction coefficient 0.70.
Brut UUOO 240930Z 28005MPS 9999 SCT074CB 24/10 Q1012 R30/010070 NOSIG RMK QFE745

VFR

24°C / 10°C

[Plus]
Vent 290º variable 260º to 350º 8kt
Visibilité >10km
Météo -
Nuages Scattered Clouds 6800ft
Pression 1012
Changement No Significant change. Runway 30: Clear and dry, 1-10% contamination with <1mm, friction coefficient 0.70.
Brut UUOO 240900Z 29004MPS 260V350 9999 SCT068CB 24/10 Q1012 R30/010070 NOSIG RMK QFE745

VFR

23°C / 11°C

[Plus]
Vent 280º 8kt
Visibilité >10km
Météo -
Nuages Clouds and Visibility OK
Pression 1012
Changement No Significant change. Runway 30: Clear and dry, 1-10% contamination with <1mm, friction coefficient 0.70.
Brut UUOO 240830Z 28004MPS CAVOK 23/11 Q1012 R30/010070 NOSIG RMK QFE745

VFR

23°C / 12°C

[Plus]
Vent 280º variable 230º to 310º 6kt
Visibilité >10km
Météo -
Nuages Clouds and Visibility OK
Pression 1012
Changement No Significant change. Runway 30: Clear and dry, 1-10% contamination with <1mm, friction coefficient 0.70.
Brut UUOO 240800Z 28003MPS 230V310 CAVOK 23/12 Q1012 R30/010070 NOSIG RMK QFE745

VFR

24°C / 12°C

[Plus]
Vent 250º variable 160º to 290º 6kt
Visibilité >10km
Météo -
Nuages Broken Clouds 4800ft
Pression 1012
Changement No Significant change. Runway 30: Clear and dry, 1-10% contamination with <1mm, friction coefficient 0.70.
Brut UUOO 240730Z 25003MPS 160V290 9999 BKN048 24/12 Q1012 R30/010070 NOSIG RMK QFE745

VFR

23°C / 12°C

[Plus]
Vent 320º variable 260º to 030º 6kt
Visibilité >10km
Météo -
Nuages Broken Clouds 3800ft
Pression 1011
Changement No Significant change. Runway 30: Clear and dry, 1-10% contamination with <1mm, friction coefficient 0.70.
Brut UUOO 240700Z 32003MPS 260V030 9999 BKN038 23/12 Q1011 R30/010070 NOSIG RMK QFE745

VFR

22°C / 12°C

[Plus]
Vent variable 2kt
Visibilité >10km
Météo -
Nuages Clouds and Visibility OK
Pression 1012
Changement No Significant change. Runway 30: Clear and dry, 1-10% contamination with <1mm, friction coefficient 0.70.
Brut UUOO 240630Z VRB01MPS CAVOK 22/12 Q1012 R30/010070 NOSIG RMK QFE745

VFR

22°C / 12°C

[Plus]
Vent 300º variable 230º to 360º 4kt
Visibilité >10km
Météo -
Nuages Clouds and Visibility OK
Pression 1011
Changement No Significant change. Runway 30: Clear and dry, 1-10% contamination with <1mm, friction coefficient 0.70.
Brut UUOO 240600Z 30002MPS 230V360 CAVOK 22/12 Q1011 R30/010070 NOSIG RMK QFE745

VFR

21°C / 12°C

[Plus]
Vent 300º variable 260º to 360º 4kt
Visibilité >10km
Météo -
Nuages Clouds and Visibility OK
Pression 1011
Changement No Significant change. Runway 30: Clear and dry, 1-10% contamination with <1mm, friction coefficient 0.70.
Brut UUOO 240530Z 30002MPS 260V360 CAVOK 21/12 Q1011 R30/010070 NOSIG RMK QFE745

VFR

20°C / 13°C

[Plus]
Vent 300º 4kt
Visibilité >10km
Météo -
Nuages Clouds and Visibility OK
Pression 1011
Changement No Significant change. Runway 30: Clear and dry, 1-10% contamination with <1mm, friction coefficient 0.70.
Brut UUOO 240500Z 30002MPS CAVOK 20/13 Q1011 R30/010070 NOSIG RMK QFE745

VFR

19°C / 13°C

[Plus]
Vent 320º variable 270º to 340º 4kt
Visibilité >10km
Météo -
Nuages Clouds and Visibility OK
Pression 1011
Changement No Significant change. Runway 30: Clear and dry, 1-10% contamination with <1mm, friction coefficient 0.70.
Brut UUOO 240430Z 32002MPS 270V340 CAVOK 19/13 Q1011 R30/010070 NOSIG RMK QFE745

TAF pour 51.82°N 39.23°E (UUOO)

From till


From till Wind 320º 6kt. Visibility 10km or more. Scattered Clouds 3000ft.

Brut: TAF UUOO 241400Z 2415/2424 32003MPS 9999 SCT030CB

Les images satellites et les pluies actuelles pour 51.82°N 39.23°E

Le marqueur de lieu est placé sur 51.82°N 39.23°E. [Plus]

L'image satellite en temps réel combine la lumière visible pendant la journée et le rayonnement infrarouge pendant la nuit. La nuit, l'image n'est pas sombre car le rayonnement infrarouge permet de détecter les différences de température. Malheureusement, les nuages bas et le brouillard sont difficiles à distinguer des températures au sol et peuvent donc être presque invisibles pendant la nuit. Les images des satellites Météosat pour l'Europe sont mises à jour en temps réel toutes les 5 minutes. Les images GOES-16/GOES-17 (Amérique du Nord et du Sud) et Himawari (Asie) sont mises à jour toutes les 10 minutes.

Copyright 2021 EUMETSAT / meteoblue. / Copyright 2021 meteoblue

Radar et prévision de précipitation à courte échéance pour 51.82°N 39.23°E

Bruine
Légère
Modéré
Fort
Très fort
Grêle

Le marqueur de position est placé sur 51.82°N 39.23°E. Cette animation montre le Radar des précipitations pour les dernières heures, ainsi qu'une 1h prévision. La bruine ou les légères chutes de neiges peuvent ne pas être détectées par le radar. L'intensité des précipitations est visible avec un code couleur allant du bleu clair au violet foncé.